createdAt,value
2017-04-14T00:00:28.798Z,84.92
2017-04-14T00:01:28.773Z,84.92
2017-04-14T00:02:28.749Z,84.74
2017-04-14T00:03:28.724Z,84.74
2017-04-14T00:04:28.394Z,85.02
2017-04-14T00:05:28.680Z,85.11
2017-04-14T00:06:28.647Z,85.02
2017-04-14T00:07:28.636Z,85.11
2017-04-14T00:08:28.595Z,85.11
2017-04-14T00:09:28.583Z,85.02
2017-04-14T00:10:28.553Z,84.92
2017-04-14T00:11:28.536Z,84.92
2017-04-14T00:12:28.503Z,85.21
2017-04-14T00:13:28.478Z,85.11
2017-04-14T00:14:28.451Z,84.92
2017-04-14T00:15:28.429Z,85.11
2017-04-14T00:16:28.402Z,85.21
2017-04-14T00:17:28.383Z,85.21
2017-04-14T00:18:28.361Z,85.21
2017-04-14T00:19:28.383Z,85.02
2017-04-14T00:20:28.307Z,85.3
2017-04-14T00:21:28.280Z,85.4
2017-04-14T00:22:28.254Z,85.21
2017-04-14T00:23:28.238Z,85.59
2017-04-14T00:24:28.209Z,85.11
2017-04-14T00:25:28.187Z,85.21
2017-04-14T00:26:28.157Z,85.4
2017-04-14T00:27:28.185Z,85.02
2017-04-14T00:28:28.109Z,85.3
2017-04-14T00:29:28.087Z,85.3
2017-04-14T00:30:28.060Z,85.4
2017-04-14T00:31:28.032Z,85.11
2017-04-14T00:32:28.018Z,84.83
2017-04-14T00:33:27.980Z,84.55
2017-04-14T00:34:27.959Z,85.11
2017-04-14T00:35:27.935Z,85.02
2017-04-14T00:36:27.910Z,85.3
2017-04-14T00:37:27.889Z,85.02
2017-04-14T00:38:27.560Z,84.92
2017-04-14T00:39:27.833Z,84.83
2017-04-14T00:40:27.863Z,84.74
2017-04-14T00:41:27.786Z,84.92
2017-04-14T00:42:27.763Z,84.92
2017-04-14T00:43:27.801Z,84.92
2017-04-14T00:44:27.716Z,84.92
2017-04-14T00:45:27.691Z,84.55
2017-04-14T00:46:27.726Z,84.83
2017-04-14T00:47:27.647Z,84.92
2017-04-14T00:48:27.616Z,85.3
2017-04-14T00:49:27.588Z,85.4
2017-04-14T00:50:27.570Z,85.49
2017-04-14T00:51:28.248Z,85.3
2017-04-14T00:52:27.219Z,85.11
2017-04-14T00:53:27.505Z,85.49
2017-04-14T00:54:27.524Z,85.3
2017-04-14T00:55:27.449Z,85.59
2017-04-14T00:56:27.418Z,85.3
2017-04-14T00:57:27.390Z,85.3
2017-04-14T00:58:27.370Z,85.45
2017-04-14T00:59:29.391Z,85.4
2017-04-14T01:00:27.329Z,85.4
2017-04-14T01:01:27.288Z,85.07
2017-04-14T01:02:27.270Z,85.4
2017-04-14T01:03:27.247Z,85.17
2017-04-14T01:04:27.230Z,85.36
2017-04-14T01:05:27.192Z,85.36
2017-04-14T01:06:27.180Z,85.26
2017-04-14T01:07:27.144Z,85.36
2017-04-14T01:08:27.117Z,85.83
2017-04-14T01:09:27.092Z,85.93
2017-04-14T01:10:27.067Z,86.11
2017-04-14T01:11:27.041Z,85.93
2017-04-14T01:12:27.020Z,86.02
2017-04-14T01:13:26.993Z,85.93
2017-04-14T01:14:26.974Z,86.3
2017-04-14T01:15:26.947Z,86.49
2017-04-14T01:16:26.929Z,86.3
2017-04-14T01:17:26.906Z,86.3
2017-04-14T01:18:26.869Z,86.21
2017-04-14T01:19:26.853Z,86.02
2017-04-14T01:20:26.819Z,86.3
2017-04-14T01:21:26.797Z,86.59
2017-04-14T01:22:26.779Z,86.59
2017-04-14T01:23:26.743Z,86.4
2017-04-14T01:24:26.717Z,86.78
2017-04-14T01:25:26.698Z,86.49
2017-04-14T01:26:26.669Z,86.68
2017-04-14T01:27:26.646Z,87.25
2017-04-14T01:28:26.623Z,87.06
2017-04-14T01:29:26.591Z,86.87
2017-04-14T01:30:26.624Z,86.78
2017-04-14T01:31:26.544Z,87.25
2017-04-14T01:32:26.523Z,87.16
2017-04-14T01:33:26.498Z,87.45
2017-04-14T01:34:26.471Z,87.06
2017-04-14T01:35:26.444Z,87.73
2017-04-14T01:36:26.422Z,87.54
2017-04-14T01:37:26.391Z,87.45
2017-04-14T01:38:26.370Z,87.63
2017-04-14T01:39:26.345Z,87.82
2017-04-14T01:40:26.317Z,87.73
2017-04-14T01:41:26.293Z,87.73
2017-04-14T01:42:26.264Z,87.73
2017-04-14T01:43:26.252Z,87.73
2017-04-14T01:44:26.224Z,87.92
2017-04-14T01:45:26.192Z,88.2
2017-04-14T01:46:26.472Z,87.92
2017-04-14T01:47:25.844Z,88.1
2017-04-14T01:48:26.118Z,88.1
2017-04-14T01:49:25.793Z,88.29
2017-04-14T01:50:26.072Z,88.48
2017-04-14T01:51:26.042Z,88.2
2017-04-14T01:52:26.019Z,87.92
2017-04-14T01:53:26.842Z,88.2
2017-04-14T01:54:25.667Z,88.58
2017-04-14T01:55:25.943Z,88.68
2017-04-14T01:56:25.924Z,88.39
2017-04-14T01:57:25.951Z,88.39
2017-04-14T01:58:25.870Z,88.39
2017-04-14T01:59:25.849Z,88.68
2017-04-14T02:00:25.858Z,89.06
2017-04-14T02:01:25.798Z,88.77
2017-04-14T02:02:25.776Z,88.58
2017-04-14T02:03:25.746Z,88.87
2017-04-14T02:04:25.719Z,89.15
2017-04-14T02:05:25.693Z,89.34
2017-04-14T02:06:25.675Z,89.15
2017-04-14T02:07:25.653Z,89.43
2017-04-14T02:08:25.311Z,89.25
2017-04-14T02:09:25.590Z,89.34
2017-04-14T02:10:25.567Z,89.34
2017-04-14T02:11:25.547Z,89.25
2017-04-14T02:12:25.514Z,88.87
2017-04-14T02:13:25.489Z,88.96
2017-04-14T02:14:25.470Z,89.25
2017-04-14T02:15:25.443Z,89.15
2017-04-14T02:16:25.414Z,89.06
2017-04-14T02:17:25.388Z,89.15
2017-04-14T02:18:25.368Z,89.15
2017-04-14T02:19:25.342Z,89.43
2017-04-14T02:20:25.365Z,89.34
2017-04-14T02:21:25.294Z,89.34
2017-04-14T02:22:25.264Z,89.34
2017-04-14T02:23:25.241Z,89.34
2017-04-14T02:24:25.226Z,89.34
2017-04-14T02:25:25.194Z,89.34
2017-04-14T02:26:25.166Z,89.25
2017-04-14T02:27:25.138Z,88.96
2017-04-14T02:28:25.114Z,89.62
2017-04-14T02:29:25.088Z,89.53
2017-04-14T02:30:25.063Z,89.62
2017-04-14T02:31:25.037Z,89.81
2017-04-14T02:32:25.012Z,89.81
2017-04-14T02:33:24.989Z,89.72
2017-04-14T02:34:24.962Z,89.34
2017-04-14T02:35:24.641Z,89.72
2017-04-14T02:36:24.920Z,89.53
2017-04-14T02:37:24.888Z,89.53
2017-04-14T02:38:24.867Z,89.72
2017-04-14T02:39:24.838Z,89.53
2017-04-14T02:40:24.814Z,89.81
2017-04-14T02:41:24.785Z,90.05
2017-04-14T02:42:24.762Z,89.62
2017-04-14T02:43:24.794Z,90.15
2017-04-14T02:44:24.718Z,90.05
2017-04-14T02:45:24.686Z,90.43
2017-04-14T02:46:24.358Z,90.62
2017-04-14T02:47:24.644Z,90.53
2017-04-14T02:48:24.636Z,90.43
2017-04-14T02:49:24.582Z,90.43
2017-04-14T02:50:24.562Z,90.05
2017-04-14T02:51:24.540Z,90.86
2017-04-14T02:52:24.508Z,90.53
2017-04-14T02:53:24.482Z,90.81
2017-04-14T02:54:24.462Z,90.72
2017-04-14T02:55:24.437Z,91.38
2017-04-14T02:56:24.414Z,91.19
2017-04-14T02:57:24.386Z,91.47
2017-04-14T02:58:24.365Z,91.09
2017-04-14T02:59:24.336Z,91.28
2017-04-14T03:00:24.314Z,91.28
2017-04-14T03:01:24.291Z,91.47
2017-04-14T03:02:24.260Z,91.57
2017-04-14T03:03:24.239Z,91.28
2017-04-14T03:04:24.211Z,91.66
2017-04-14T03:05:24.203Z,91.85
2017-04-14T03:06:24.208Z,91.28
2017-04-14T03:07:24.130Z,91.28
2017-04-14T03:08:24.106Z,91.28
2017-04-14T03:09:23.781Z,91.47
2017-04-14T03:10:24.055Z,91.47
2017-04-14T03:11:24.033Z,91.47
2017-04-14T03:12:24.008Z,91.66
2017-04-14T03:13:24.033Z,91.66
2017-04-14T03:14:23.960Z,91.47
2017-04-14T03:15:23.924Z,91.57
2017-04-14T03:16:23.905Z,91.85
2017-04-14T03:17:23.881Z,91.95
2017-04-14T03:18:23.901Z,91.47
2017-04-14T03:19:23.825Z,91.57
2017-04-14T03:20:23.800Z,91.95
2017-04-14T03:21:23.777Z,91.57
2017-04-14T03:22:23.747Z,92.23
2017-04-14T03:23:23.730Z,91.85
2017-04-14T03:24:23.703Z,91.85
2017-04-14T03:25:23.680Z,92.04
2017-04-14T03:26:23.701Z,92.14
2017-04-14T03:27:23.633Z,91.85
2017-04-14T03:28:23.615Z,92.04
2017-04-14T03:29:23.573Z,92.04
2017-04-14T03:30:23.546Z,92.04
2017-04-14T03:31:23.522Z,91.85
2017-04-14T03:32:23.494Z,92.23
2017-04-14T03:33:23.470Z,92.23
2017-04-14T03:34:23.452Z,92.33
2017-04-14T03:35:23.420Z,92.23
2017-04-14T03:36:23.397Z,92.23
2017-04-14T03:37:23.375Z,92.23
2017-04-14T03:38:23.349Z,92.33
2017-04-14T03:39:23.323Z,92.42
2017-04-14T03:40:23.350Z,92.23
2017-04-14T03:41:23.269Z,92.23
2017-04-14T03:42:23.250Z,92.8
2017-04-14T03:43:23.218Z,92.42
2017-04-14T03:44:23.194Z,92.33
2017-04-14T03:45:23.166Z,92.23
2017-04-14T03:46:23.140Z,92.42
2017-04-14T03:47:23.116Z,92.52
2017-04-14T03:48:23.093Z,92.33
2017-04-14T03:49:23.065Z,92.42
2017-04-14T03:50:23.039Z,92.9
2017-04-14T03:51:23.012Z,92.9
2017-04-14T03:52:22.990Z,92.23
2017-04-14T03:53:22.970Z,92.14
2017-04-14T03:54:22.951Z,92.8
2017-04-14T03:55:22.909Z,92.61
2017-04-14T03:56:24.487Z,92.42
2017-04-14T03:57:22.861Z,92.71
2017-04-14T03:58:22.843Z,92.52
2017-04-14T03:59:22.808Z,92.8
2017-04-14T04:00:22.784Z,92.61
2017-04-14T04:01:22.758Z,92.8
2017-04-14T04:02:22.740Z,92.61
2017-04-14T04:03:22.928Z,93.08
2017-04-14T04:04:22.683Z,93.18
2017-04-14T04:05:22.653Z,92.8
2017-04-14T04:06:22.630Z,92.9
2017-04-14T04:07:22.602Z,93.08
2017-04-14T04:08:22.579Z,93.08
2017-04-14T04:09:22.553Z,93.18
2017-04-14T04:10:22.526Z,93.75
2017-04-14T04:11:22.503Z,93.27
2017-04-14T04:12:22.475Z,93.75
2017-04-14T04:13:22.450Z,93.27
2017-04-14T04:14:22.434Z,93.75
2017-04-14T04:15:22.100Z,93.46
2017-04-14T04:16:22.374Z,93.27
2017-04-14T04:17:22.347Z,93.27
2017-04-14T04:18:22.320Z,93.37
2017-04-14T04:19:22.298Z,93.46
2017-04-14T04:20:22.274Z,93.46
2017-04-14T04:21:22.245Z,93.27
2017-04-14T04:22:22.223Z,93.84
2017-04-14T04:23:22.200Z,93.84
2017-04-14T04:24:22.171Z,94.13
2017-04-14T04:25:22.144Z,94.04
2017-04-14T04:26:22.820Z,93.65
2017-04-14T04:27:22.095Z,93.84
2017-04-14T04:28:22.074Z,93.65
2017-04-14T04:29:22.042Z,94.04
2017-04-14T04:30:22.016Z,93.94
2017-04-14T04:31:21.992Z,94.27
2017-04-14T04:32:21.961Z,93.99
2017-04-14T04:33:21.944Z,93.94
2017-04-14T04:34:21.914Z,94.13
2017-04-14T04:35:21.883Z,94.23
2017-04-14T04:36:21.560Z,94.04
2017-04-14T04:37:21.830Z,94.32
2017-04-14T04:38:21.808Z,94.32
2017-04-14T04:39:21.787Z,94.32
2017-04-14T04:40:21.810Z,94.27
2017-04-14T04:41:21.731Z,94.42
2017-04-14T04:42:21.763Z,94.23
2017-04-14T04:43:21.690Z,94.42
2017-04-14T04:44:21.658Z,94.6
2017-04-14T04:45:21.631Z,94.13
2017-04-14T04:46:21.604Z,94.42
2017-04-14T04:47:21.584Z,94.32
2017-04-14T04:48:21.557Z,94.79
2017-04-14T04:49:21.534Z,94.79
2017-04-14T04:50:21.502Z,94.42
2017-04-14T04:51:21.530Z,94.98
2017-04-14T04:52:21.450Z,95.07
2017-04-14T04:53:21.485Z,95.07
2017-04-14T04:54:21.407Z,94.23
2017-04-14T04:55:21.375Z,94.13
2017-04-14T04:56:21.348Z,94.79
2017-04-14T04:57:21.327Z,94.7
2017-04-14T04:58:21.311Z,94.79
2017-04-14T04:59:21.278Z,95.07
2017-04-14T05:00:21.243Z,94.89
2017-04-14T05:01:21.225Z,94.89
2017-04-14T05:02:21.199Z,94.6
2017-04-14T05:03:20.870Z,94.6
2017-04-14T05:04:21.142Z,94.6
2017-04-14T05:05:21.123Z,94.89
2017-04-14T05:06:22.042Z,94.7
2017-04-14T05:07:21.073Z,94.7
2017-04-14T05:08:21.045Z,94.79
2017-04-14T05:09:21.023Z,94.79
2017-04-14T05:10:21.019Z,94.6
2017-04-14T05:11:20.970Z,94.32
2017-04-14T05:12:20.942Z,94.32
2017-04-14T05:13:20.918Z,95.17
2017-04-14T05:14:20.915Z,94.18
2017-04-14T05:15:20.867Z,94.27
2017-04-14T05:16:20.844Z,94.08
2017-04-14T05:17:20.816Z,94.37
2017-04-14T05:18:20.841Z,94.18
2017-04-14T05:19:20.770Z,94.27
2017-04-14T05:20:20.740Z,94.27
2017-04-14T05:21:20.716Z,94.37
2017-04-14T05:22:20.698Z,94.13
2017-04-14T05:23:20.671Z,94.03
2017-04-14T05:24:20.649Z,93.37
2017-04-14T05:25:20.673Z,93.65
2017-04-14T05:26:20.599Z,92.94
2017-04-14T05:27:20.571Z,92.75
2017-04-14T05:28:20.553Z,92.28
2017-04-14T05:29:20.522Z,91.99
2017-04-14T05:30:20.503Z,91.89
2017-04-14T05:31:20.475Z,90.71
2017-04-14T05:32:20.450Z,90.42
2017-04-14T05:33:20.427Z,89.57
2017-04-14T05:34:20.409Z,89.76
2017-04-14T05:35:20.387Z,89.09
2017-04-14T05:36:20.357Z,88.15
2017-04-14T05:37:20.336Z,87.67
2017-04-14T05:38:20.318Z,87.67
2017-04-14T05:39:20.288Z,87.76
2017-04-14T05:40:21.363Z,87.19
2017-04-14T05:41:20.246Z,86.72
2017-04-14T05:42:20.220Z,87.01
2017-04-14T05:43:20.195Z,86.24
2017-04-14T05:44:20.173Z,86.72
2017-04-14T05:45:20.153Z,86.24
2017-04-14T05:46:20.126Z,85.96
2017-04-14T05:47:20.104Z,86.05
2017-04-14T05:48:20.081Z,85.96
2017-04-14T05:49:20.054Z,85.96
2017-04-14T05:50:20.036Z,85.39
2017-04-14T05:51:20.413Z,85.58
2017-04-14T05:52:19.988Z,85.15
2017-04-14T05:53:19.966Z,85.15
2017-04-14T05:54:19.943Z,85.15
2017-04-14T05:55:19.921Z,84.24
2017-04-14T05:56:21.301Z,83.67
2017-04-14T05:57:19.878Z,82.67
2017-04-14T05:58:19.852Z,81.71
2017-04-14T05:59:19.829Z,81.24
2017-04-14T06:00:19.809Z,80.04
2017-04-14T06:01:19.787Z,80.04
2017-04-14T06:02:19.762Z,79.03
2017-04-14T06:03:19.749Z,78.37
2017-04-14T06:04:19.735Z,77.36
2017-04-14T06:05:19.704Z,76.21
2017-04-14T06:06:19.680Z,75.36
2017-04-14T06:07:19.662Z,75.26
2017-04-14T06:08:19.647Z,75.11
2017-04-14T06:09:19.618Z,75.01
2017-04-14T06:10:20.601Z,73.43
2017-04-14T06:11:19.583Z,72.96
2017-04-14T06:12:19.558Z,72.48
2017-04-14T06:13:19.532Z,71.84
2017-04-14T06:14:19.514Z,70.32
2017-04-14T06:15:19.490Z,70.32
2017-04-14T06:16:19.481Z,69.65
2017-04-14T06:17:19.453Z,69.17
2017-04-14T06:18:19.429Z,68.82
2017-04-14T06:19:19.413Z,67.11
2017-04-14T06:20:19.388Z,67.01
2017-04-14T06:21:19.367Z,67.49
2017-04-14T06:22:19.348Z,67.05
2017-04-14T06:23:19.528Z,65.8
2017-04-14T06:24:19.312Z,65.33
2017-04-14T06:25:19.288Z,65.07
2017-04-14T06:26:19.270Z,64.5
2017-04-14T06:27:19.251Z,64.25
2017-04-14T06:28:19.230Z,63.76
2017-04-14T06:29:19.218Z,62.33
2017-04-14T06:30:19.194Z,61.69
2017-04-14T06:31:19.175Z,61.51
2017-04-14T06:32:19.152Z,62.08
2017-04-14T06:33:19.135Z,61.22
2017-04-14T06:34:19.117Z,60.29
2017-04-14T06:35:19.848Z,59.91
2017-04-14T06:36:19.085Z,58.86
2017-04-14T06:37:19.061Z,58.47
2017-04-14T06:38:19.044Z,58.37
2017-04-14T06:39:19.025Z,58.69
2017-04-14T06:40:19.005Z,57.45
2017-04-14T06:41:18.996Z,58.22
2017-04-14T06:42:18.971Z,57.61
2017-04-14T06:43:18.956Z,57.42
2017-04-14T06:44:18.933Z,57.51
2017-04-14T06:45:18.920Z,57.51
2017-04-14T06:46:18.904Z,56.37
2017-04-14T06:47:19.933Z,55.88
2017-04-14T06:48:18.868Z,56.65
2017-04-14T06:49:18.892Z,56.1
2017-04-14T06:50:18.825Z,56.01
2017-04-14T06:51:18.813Z,55.44
2017-04-14T06:52:18.793Z,55.63
2017-04-14T06:53:18.778Z,55.34
2017-04-14T06:54:18.758Z,56.1
2017-04-14T06:55:18.740Z,56.08
2017-04-14T06:56:18.426Z,56.1
2017-04-14T06:57:18.702Z,56.27
2017-04-14T06:58:18.688Z,56.3
2017-04-14T06:59:18.668Z,56.1
2017-04-14T07:00:18.653Z,55.34
2017-04-14T07:01:18.639Z,54.86
2017-04-14T07:02:18.711Z,55.27
2017-04-14T07:03:18.604Z,54.99
2017-04-14T07:04:18.583Z,54.03
2017-04-14T07:05:18.572Z,54.05
2017-04-14T07:06:18.849Z,53.48
2017-04-14T07:07:18.531Z,52.83
2017-04-14T07:08:18.515Z,51.71
2017-04-14T07:09:18.501Z,51.64
2017-04-14T07:10:18.485Z,51.71
2017-04-14T07:11:18.472Z,51.97
2017-04-14T07:12:18.453Z,53.48
2017-04-14T07:13:18.436Z,54.6
2017-04-14T07:14:18.423Z,55.44
2017-04-14T07:15:18.401Z,56.37
2017-04-14T07:16:18.082Z,57.48
2017-04-14T07:17:18.617Z,58.61
2017-04-14T07:18:18.344Z,59.53
2017-04-14T07:19:18.325Z,60.36
2017-04-14T07:20:18.309Z,61.69
2017-04-14T07:21:18.287Z,61.86
2017-04-14T07:22:18.276Z,62.62
2017-04-14T07:23:18.261Z,63.67
2017-04-14T07:24:18.233Z,64.12
2017-04-14T07:25:18.225Z,64.02
2017-04-14T07:26:18.205Z,64.69
2017-04-14T07:27:19.990Z,65.52
2017-04-14T07:28:18.165Z,66.38
2017-04-14T07:29:18.146Z,66.09
2017-04-14T07:30:18.114Z,67.33
2017-04-14T07:31:18.095Z,67.9
2017-04-14T07:32:18.074Z,68.15
2017-04-14T07:33:18.051Z,68.72
2017-04-14T07:34:18.033Z,68.91
2017-04-14T07:35:18.016Z,69.45
2017-04-14T07:36:17.994Z,69.54
2017-04-14T07:37:19.580Z,70.21
2017-04-14T07:38:17.955Z,70.31
2017-04-14T07:39:17.936Z,70.78
2017-04-14T07:40:17.915Z,70.4
2017-04-14T07:41:17.893Z,71.17
2017-04-14T07:42:17.870Z,71.26
2017-04-14T07:43:17.866Z,70.88
2017-04-14T07:44:17.826Z,71.64
2017-04-14T07:45:17.820Z,71.64
2017-04-14T07:46:17.785Z,71.55
2017-04-14T07:47:17.764Z,71.83
2017-04-14T07:48:17.743Z,71.83
2017-04-14T07:49:18.022Z,72.5
2017-04-14T07:50:17.700Z,73.17
2017-04-14T07:51:17.679Z,72.88
2017-04-14T07:52:17.659Z,72.6
2017-04-14T07:53:17.639Z,72.31
2017-04-14T07:54:17.615Z,72.41
2017-04-14T07:55:17.598Z,72.6
2017-04-14T07:56:17.577Z,73.17
2017-04-14T07:57:17.553Z,72.69
2017-04-14T07:58:17.233Z,73.36
2017-04-14T07:59:17.507Z,72.88
2017-04-14T08:00:17.491Z,73.74
2017-04-14T08:01:17.464Z,73.83
2017-04-14T08:02:17.445Z,73.41
2017-04-14T08:03:17.428Z,73.99
2017-04-14T08:04:17.403Z,74.27
2017-04-14T08:05:17.382Z,74.56
2017-04-14T08:06:17.360Z,74.18
2017-04-14T08:07:17.338Z,74.27
2017-04-14T08:08:17.368Z,74.65
2017-04-14T08:09:17.298Z,74.94
2017-04-14T08:10:17.270Z,74.84
2017-04-14T08:11:17.251Z,75.23
2017-04-14T08:12:17.230Z,74.84
2017-04-14T08:13:17.216Z,74.84
2017-04-14T08:14:17.189Z,75.04
2017-04-14T08:15:17.162Z,75.13
2017-04-14T08:16:17.148Z,75.89
2017-04-14T08:17:17.126Z,75.51
2017-04-14T08:18:17.599Z,75.7
2017-04-14T08:19:17.079Z,75.99
2017-04-14T08:20:17.108Z,75.89
2017-04-14T08:21:17.040Z,76.18
2017-04-14T08:22:17.009Z,76.08
2017-04-14T08:23:16.997Z,75.7
2017-04-14T08:24:16.969Z,76.18
2017-04-14T08:25:16.950Z,76.27
2017-04-14T08:26:16.927Z,76.46
2017-04-14T08:27:17.755Z,76.46
2017-04-14T08:28:16.884Z,76.37
2017-04-14T08:29:16.861Z,76.46
2017-04-14T08:30:16.840Z,76.84
2017-04-14T08:31:16.815Z,76.84
2017-04-14T08:32:16.798Z,77.13
2017-04-14T08:33:16.788Z,76.84
2017-04-14T08:34:16.756Z,77.13
2017-04-14T08:35:16.730Z,77.13
2017-04-14T08:36:16.709Z,77.03
2017-04-14T08:37:16.685Z,76.37
2017-04-14T08:38:16.672Z,76.46
2017-04-14T08:39:16.640Z,76.46
2017-04-14T08:40:16.619Z,76.37
2017-04-14T08:41:16.597Z,76.37
2017-04-14T08:42:16.576Z,76.46
2017-04-14T08:43:16.562Z,76.56
2017-04-14T08:44:16.531Z,76.08
2017-04-14T08:45:16.562Z,76.37
2017-04-14T08:46:16.488Z,76.27
2017-04-14T08:47:16.461Z,76.56
2017-04-14T08:48:16.455Z,76.56
2017-04-14T08:49:16.427Z,76.56
2017-04-14T08:50:16.398Z,76.75
2017-04-14T08:51:16.383Z,76.56
2017-04-14T08:52:16.356Z,76.46
2017-04-14T08:53:16.340Z,76.46
2017-04-14T08:54:16.315Z,76.56
2017-04-14T08:55:16.293Z,76.46
2017-04-14T08:56:16.269Z,76.37
2017-04-14T08:57:16.246Z,76.37
2017-04-14T08:58:16.225Z,75.99
2017-04-14T08:59:16.207Z,76.12
2017-04-14T09:00:16.181Z,75.84
2017-04-14T09:02:16.143Z,76.21
2017-04-14T09:03:16.118Z,76.4
2017-04-14T09:04:16.098Z,76.31
2017-04-14T09:05:16.079Z,76.4
2017-04-14T09:06:16.102Z,75.93
2017-04-14T09:07:16.030Z,76.5
2017-04-14T09:08:16.006Z,76.4
2017-04-14T09:09:16.049Z,77.13
2017-04-14T09:10:15.971Z,77.07
2017-04-14T09:11:15.939Z,76.88
2017-04-14T09:12:15.916Z,76.94
2017-04-14T09:13:15.896Z,77.32
2017-04-14T09:14:15.872Z,77.32
2017-04-14T09:15:15.861Z,77.26
2017-04-14T09:16:15.832Z,77.42
2017-04-14T09:17:15.806Z,77.13
2017-04-14T09:18:15.785Z,77.26
2017-04-14T09:19:15.769Z,77.07
2017-04-14T09:20:15.744Z,76.94
2017-04-14T09:21:15.722Z,77.51
2017-04-14T09:22:15.703Z,77.51
2017-04-14T09:23:15.732Z,77.7
2017-04-14T09:24:15.659Z,77.89
2017-04-14T09:25:15.636Z,77.8
2017-04-14T09:26:15.315Z,77.8
2017-04-14T09:27:15.601Z,77.98
2017-04-14T09:28:15.567Z,77.61
2017-04-14T09:29:15.546Z,77.61
2017-04-14T09:30:15.578Z,77.8
2017-04-14T09:31:15.500Z,77.42
2017-04-14T09:32:15.478Z,78.17
2017-04-14T09:33:15.459Z,78.65
2017-04-14T09:34:15.444Z,78.46
2017-04-14T09:35:15.114Z,78.37
2017-04-14T09:36:15.401Z,78.46
2017-04-14T09:37:15.370Z,78.31
2017-04-14T09:38:15.048Z,78.41
2017-04-14T09:39:15.323Z,78.17
2017-04-14T09:40:15.298Z,78.46
2017-04-14T09:41:15.283Z,78.37
2017-04-14T09:42:15.264Z,78.5
2017-04-14T09:43:15.238Z,78.17
2017-04-14T09:44:15.217Z,79.03
2017-04-14T09:45:15.203Z,78.75
2017-04-14T09:46:15.176Z,78.65
2017-04-14T09:47:15.150Z,78.78
2017-04-14T09:48:15.129Z,78.69
2017-04-14T09:49:15.109Z,78.65
2017-04-14T09:50:15.085Z,78.65
2017-04-14T09:51:15.064Z,78.69
2017-04-14T09:52:15.038Z,79.17
2017-04-14T09:53:15.019Z,78.88
2017-04-14T09:54:15.000Z,78.5
2017-04-14T09:55:15.023Z,78.5
2017-04-14T09:56:14.951Z,79.17
2017-04-14T09:57:14.928Z,79.17
2017-04-14T09:58:14.910Z,79.07
2017-04-14T09:59:14.884Z,79.17
2017-04-14T10:00:14.867Z,79.17
2017-04-14T10:01:14.844Z,79.17
2017-04-14T10:02:14.826Z,79.17
2017-04-14T10:03:14.801Z,79.17
2017-04-14T10:04:14.524Z,79.17
2017-04-14T10:05:14.758Z,79.17
2017-04-14T10:06:14.754Z,79.07
2017-04-14T10:07:14.718Z,78.98
2017-04-14T10:08:14.693Z,78.69
2017-04-14T10:09:14.676Z,79.07
2017-04-14T10:10:14.645Z,79.07
2017-04-14T10:11:14.628Z,79.07
2017-04-14T10:12:15.404Z,79.17
2017-04-14T10:13:14.583Z,78.98
2017-04-14T10:14:14.809Z,79.27
2017-04-14T10:15:14.534Z,78.88
2017-04-14T10:16:14.515Z,79.36
2017-04-14T10:17:14.196Z,78.98
2017-04-14T10:18:14.471Z,79.17
2017-04-14T10:19:14.458Z,79.17
2017-04-14T10:20:14.431Z,79.07
2017-04-14T10:21:14.403Z,79.07
2017-04-14T10:22:14.383Z,79.27
2017-04-14T10:23:14.365Z,79.36
2017-04-14T10:24:14.339Z,79.07
2017-04-14T10:25:14.012Z,79.55
2017-04-14T10:26:14.297Z,79.27
2017-04-14T10:27:14.026Z,79.07
2017-04-14T10:28:14.257Z,79.07
2017-04-14T10:29:14.239Z,78.98
2017-04-14T10:30:14.205Z,78.88
2017-04-14T10:31:14.239Z,78.88
2017-04-14T10:32:14.165Z,78.69
2017-04-14T10:33:14.144Z,78.22
2017-04-14T10:34:14.123Z,79.17
2017-04-14T10:35:14.096Z,78.98
2017-04-14T10:36:13.825Z,78.78
2017-04-14T10:37:14.054Z,78.78
2017-04-14T10:38:14.035Z,78.98
2017-04-14T10:39:14.007Z,79.17
2017-04-14T10:40:13.988Z,78.98
2017-04-14T10:41:13.966Z,78.31
2017-04-14T10:42:13.947Z,78.69
2017-04-14T10:43:13.923Z,78.22
2017-04-14T10:44:13.901Z,78.22
2017-04-14T10:45:13.936Z,78.5
2017-04-14T10:46:13.855Z,78.31
2017-04-14T10:47:13.835Z,78.78
2017-04-14T10:48:13.814Z,78.31
2017-04-14T10:49:13.789Z,78.16
2017-04-14T10:50:13.774Z,77.78
2017-04-14T10:51:13.749Z,77.87
2017-04-14T10:52:13.726Z,77.69
2017-04-14T10:53:13.706Z,78.35
2017-04-14T10:54:13.679Z,77.4
2017-04-14T10:55:13.668Z,77.2
2017-04-14T10:56:13.636Z,77.2
2017-04-14T10:57:13.615Z,76.82
2017-04-14T10:58:13.818Z,77.2
2017-04-14T10:59:13.575Z,76.44
2017-04-14T11:00:13.549Z,76.44
2017-04-14T11:01:13.539Z,76.54
2017-04-14T11:02:13.502Z,76.73
2017-04-14T11:03:13.484Z,76.06
2017-04-14T11:04:13.164Z,76.35
2017-04-14T11:05:13.440Z,75.87
2017-04-14T11:06:13.420Z,76.2
2017-04-14T11:07:13.404Z,76.1
2017-04-14T11:08:13.078Z,76.1
2017-04-14T11:09:13.753Z,76.2
2017-04-14T11:10:13.332Z,76.1
2017-04-14T11:11:13.364Z,75.43
2017-04-14T11:12:13.292Z,75.34
2017-04-14T11:13:12.978Z,75.43
2017-04-14T11:14:12.949Z,75.91
2017-04-14T11:15:13.227Z,75.53
2017-04-14T11:16:13.213Z,75.62
2017-04-14T11:17:13.199Z,75.43
2017-04-14T11:18:13.163Z,75.34
2017-04-14T11:19:13.143Z,75.24
2017-04-14T11:20:13.119Z,74.77
2017-04-14T11:21:13.149Z,74.96
2017-04-14T11:22:13.079Z,75.34
2017-04-14T11:23:13.056Z,74.96
2017-04-14T11:24:13.037Z,75.05
2017-04-14T11:25:13.015Z,74.96
2017-04-14T11:26:12.992Z,74.77
2017-04-14T11:27:12.983Z,74.19
2017-04-14T11:28:12.950Z,74.57
2017-04-14T11:29:12.932Z,74.48
2017-04-14T11:30:12.907Z,74.38
2017-04-14T11:31:12.890Z,74.29
2017-04-14T11:32:12.860Z,73.56
2017-04-14T11:33:12.542Z,73.85
2017-04-14T11:34:12.830Z,73.47
2017-04-14T11:35:12.795Z,73.18
2017-04-14T11:36:12.788Z,72.99
2017-04-14T11:37:12.760Z,72.99
2017-04-14T11:38:12.441Z,72.71
2017-04-14T11:39:12.420Z,72.71
2017-04-14T11:40:12.403Z,72.61
2017-04-14T11:41:12.676Z,72.71
2017-04-14T11:42:12.700Z,72.89
2017-04-14T11:43:12.632Z,72.42
2017-04-14T11:44:12.613Z,72.61
2017-04-14T11:45:12.597Z,72.42
2017-04-14T11:46:12.567Z,72.23
2017-04-14T11:47:12.248Z,72.51
2017-04-14T11:48:12.532Z,72.51
2017-04-14T11:49:12.513Z,72.23
2017-04-14T11:50:12.487Z,72.13
2017-04-14T11:51:12.464Z,71.66
2017-04-14T11:52:12.599Z,71.66
2017-04-14T11:53:12.427Z,71.84
2017-04-14T11:54:12.400Z,71.84
2017-04-14T11:55:12.380Z,71.37
2017-04-14T11:56:12.372Z,71.18
2017-04-14T11:57:12.341Z,71.37
2017-04-14T11:58:12.320Z,70.7
2017-04-14T11:59:12.294Z,70.51
2017-04-14T12:00:12.278Z,70.89
2017-04-14T12:01:12.251Z,70.7
2017-04-14T12:02:12.234Z,70.89
2017-04-14T12:03:12.210Z,70.89
2017-04-14T12:04:12.201Z,70.89
2017-04-14T12:05:13.607Z,70.61
2017-04-14T12:06:12.156Z,70.79
2017-04-14T12:07:12.147Z,70.7
2017-04-14T12:08:12.361Z,70.22
2017-04-14T12:09:12.084Z,70.36
2017-04-14T12:10:12.067Z,70.26
2017-04-14T12:11:11.743Z,70.07
2017-04-14T12:12:12.030Z,69.78
2017-04-14T12:13:12.005Z,69.97
2017-04-14T12:14:11.989Z,69.68
2017-04-14T12:15:11.962Z,69.68
2017-04-14T12:16:11.943Z,69.15
2017-04-14T12:17:11.617Z,68.96
2017-04-14T12:18:11.899Z,69.05
2017-04-14T12:19:11.881Z,68.48
2017-04-14T12:20:11.913Z,68.29
2017-04-14T12:21:11.841Z,67.62
2017-04-14T12:22:11.572Z,67.71
2017-04-14T12:23:11.496Z,67.71
2017-04-14T12:24:11.788Z,68
2017-04-14T12:25:11.762Z,67.33
2017-04-14T12:26:11.745Z,67.33
2017-04-14T12:27:11.715Z,67.43
2017-04-14T12:28:11.699Z,66.76
2017-04-14T12:29:11.675Z,66.76
2017-04-14T12:30:11.667Z,67.14
2017-04-14T12:31:11.635Z,67.05
2017-04-14T12:32:11.623Z,66.85
2017-04-14T12:33:11.602Z,66.38
2017-04-14T12:34:11.572Z,66.85
2017-04-14T12:35:11.558Z,66.56
2017-04-14T12:36:11.536Z,66.28
2017-04-14T12:37:11.513Z,66.76
2017-04-14T12:38:11.497Z,66.95
2017-04-14T12:39:11.477Z,67.24
2017-04-14T12:40:11.154Z,66.47
2017-04-14T12:41:11.225Z,66.47
2017-04-14T12:42:11.409Z,66.47
2017-04-14T12:43:11.391Z,66.56
2017-04-14T12:44:11.373Z,66.47
2017-04-14T12:45:11.351Z,66.38
2017-04-14T12:46:11.326Z,66.25
2017-04-14T12:47:11.361Z,67.21
2017-04-14T12:48:11.287Z,67.11
2017-04-14T12:49:11.273Z,67.3
2017-04-14T12:50:11.250Z,67.21
2017-04-14T12:51:11.228Z,67.11
2017-04-14T12:52:11.208Z,67.87
2017-04-14T12:53:11.187Z,67.77
2017-04-14T12:54:10.871Z,68.16
2017-04-14T12:55:11.142Z,67.87
2017-04-14T12:56:11.122Z,68.16